Time;durP1;ratioP1;P1;durP2;ratioP2;P2;SDS_P1;SDS_P2;PMS_P1;PMS_P2;Temp;Humidity;BMP_temperature;BMP_pressure;BME280_temperature;BME280_humidity;BME280_pressure;Samples;Min_cycle;Max_cycle;Signal;HPM_P1;HPM_P2
2023/05/30 00:01:06;;;;;;;0.73;0.70;;;17.10;65.00;;;;;;4967346;28;20211;-69
2023/05/30 00:03:35;;;;;;;1.07;0.97;;;17.10;65.00;;;;;;4976503;28;20268;-68
2023/05/30 00:06:02;;;;;;;1.00;0.90;;;17.10;65.00;;;;;;4973022;28;20196;-68
2023/05/30 00:08:29;;;;;;;1.27;1.00;;;17.10;65.80;;;;;;4975892;28;20193;-69
2023/05/30 00:10:56;;;;;;;1.40;1.03;;;17.20;65.10;;;;;;4969912;28;20221;-68
2023/05/30 00:13:24;;;;;;;0.93;0.83;;;17.10;65.00;;;;;;4970570;28;20209;-68
2023/05/30 00:15:54;;;;;;;1.13;0.67;;;17.10;65.00;;;;;;4975811;28;20783;-68
2023/05/30 00:18:22;;;;;;;1.60;0.90;;;17.00;65.00;;;;;;4964396;28;20743;-68
2023/05/30 00:20:49;;;;;;;0.70;0.70;;;17.00;65.10;;;;;;4974791;28;20198;-69
2023/05/30 00:23:17;;;;;;;1.23;1.00;;;17.00;65.10;;;;;;4951937;28;20205;-70
2023/05/30 00:25:45;;;;;;;1.30;1.00;;;17.00;65.10;;;;;;4975591;28;20265;-69
2023/05/30 00:28:12;;;;;;;1.20;0.83;;;16.90;65.00;;;;;;4972826;28;20202;-69
2023/05/30 00:30:39;;;;;;;1.10;1.00;;;16.90;64.90;;;;;;4964829;28;20200;-68
2023/05/30 00:33:08;;;;;;;1.87;0.70;;;16.90;65.00;;;;;;4986712;28;20300;-69
2023/05/30 00:35:35;;;;;;;2.33;1.20;;;16.90;65.00;;;;;;4971504;28;20220;-68
2023/05/30 00:38:02;;;;;;;2.77;1.17;;;16.90;65.00;;;;;;4972088;28;20645;-69
2023/05/30 00:40:30;;;;;;;1.50;0.90;;;16.80;65.00;;;;;;4976273;28;20208;-68
2023/05/30 00:42:58;;;;;;;2.83;0.90;;;16.80;65.00;;;;;;4958198;28;20288;-68
2023/05/30 00:45:25;;;;;;;2.40;0.77;;;16.80;65.00;;;;;;4950069;28;20216;-68
2023/05/30 00:47:53;;;;;;;1.80;0.93;;;16.80;65.10;;;;;;4962184;28;20229;-68
2023/05/30 00:50:25;;;;;;;0.90;0.90;;;16.70;65.00;;;;;;4969359;28;20213;-68
2023/05/30 00:52:52;;;;;;;1.00;0.70;;;16.70;64.90;;;;;;4967970;28;20192;-68
2023/05/30 00:55:20;;;;;;;0.73;0.73;;;16.70;64.80;;;;;;4972380;28;20212;-68
2023/05/30 00:57:48;;;;;;;1.60;0.73;;;16.70;65.60;;;;;;4971067;28;20218;-68
2023/05/30 01:00:16;;;;;;;1.43;1.10;;;16.70;64.80;;;;;;4966223;28;20279;-68
2023/05/30 01:02:45;;;;;;;1.33;0.87;;;16.70;64.90;;;;;;4977937;28;20325;-68
2023/05/30 01:05:14;;;;;;;0.83;0.70;;;16.70;64.80;;;;;;4950316;28;20208;-68
2023/05/30 01:07:43;;;;;;;0.63;0.63;;;16.70;64.70;;;;;;4972774;28;20192;-67
2023/05/30 01:10:11;;;;;;;0.50;0.50;;;16.70;64.50;;;;;;4958077;28;20213;-68
2023/05/30 01:12:44;;;;;;;1.83;0.60;;;16.60;64.50;;;;;;4959443;28;20208;-68
2023/05/30 01:15:16;;;;;;;0.80;0.80;;;16.50;64.50;;;;;;4951742;28;20307;-68
2023/05/30 01:17:53;;;;;;;0.73;0.73;;;16.50;64.40;;;;;;4978335;28;20200;-68
2023/05/30 01:20:24;;;;;;;1.03;0.70;;;16.50;64.40;;;;;;4965972;28;20188;-69
2023/05/30 01:23:23;;;;;;;1.17;0.60;;;16.50;64.50;;;;;;4964864;28;20208;-69
2023/05/30 01:26:06;;;;;;;1.37;1.00;;;16.50;64.50;;;;;;4952513;28;20219;-68
2023/05/30 01:28:37;;;;;;;0.87;0.80;;;16.50;64.40;;;;;;4957664;28;20303;-68
2023/05/30 01:31:06;;;;;;;1.73;0.97;;;16.50;64.40;;;;;;4977722;28;20208;-68
2023/05/30 01:33:34;;;;;;;2.00;1.00;;;16.50;64.30;;;;;;4973949;28;20215;-67
2023/05/30 01:36:01;;;;;;;0.93;0.80;;;16.50;64.30;;;;;;4966634;28;20193;-69
2023/05/30 01:38:29;;;;;;;2.50;1.00;;;16.50;64.20;;;;;;4960932;28;20548;-69
2023/05/30 01:41:00;;;;;;;1.00;0.80;;;16.50;64.20;;;;;;4969492;28;20202;-69
2023/05/30 01:43:40;;;;;;;1.73;1.10;;;16.50;64.20;;;;;;4943207;28;20733;-68
2023/05/30 01:46:17;;;;;;;1.13;0.80;;;16.40;64.00;;;;;;4966713;28;20622;-69
2023/05/30 01:48:59;;;;;;;1.90;0.87;;;16.40;64.00;;;;;;4954451;28;20676;-68
2023/05/30 01:51:32;;;;;;;1.00;0.83;;;16.40;64.20;;;;;;4967539;28;20287;-68
2023/05/30 01:54:03;;;;;;;1.20;1.00;;;16.30;64.20;;;;;;4953894;28;20632;-69
2023/05/30 01:56:32;;;;;;;0.70;0.70;;;16.30;64.10;;;;;;4972403;28;20604;-69
2023/05/30 01:59:02;;;;;;;2.17;0.90;;;16.20;64.00;;;;;;4963660;28;20215;-69
2023/05/30 02:01:30;;;;;;;0.67;0.67;;;16.20;64.20;;;;;;4962429;28;20294;-68
2023/05/30 02:03:57;;;;;;;1.13;0.87;;;16.20;64.20;;;;;;4964952;28;20232;-69
2023/05/30 02:06:24;;;;;;;1.60;0.90;;;16.30;64.30;;;;;;4961206;28;20675;-69
2023/05/30 02:08:52;;;;;;;0.90;0.80;;;16.20;64.20;;;;;;4973145;28;20776;-69
2023/05/30 02:11:19;;;;;;;0.60;0.60;;;16.30;64.30;;;;;;4949171;28;20208;-69
2023/05/30 02:13:47;;;;;;;1.80;1.00;;;16.20;64.20;;;;;;4976935;28;20345;-69
2023/05/30 02:16:18;;;;;;;2.13;0.73;;;16.20;64.30;;;;;;4957133;28;20208;-68
2023/05/30 02:18:45;;;;;;;0.70;0.70;;;16.10;64.30;;;;;;4964457;28;20660;-68
2023/05/30 02:21:12;;;;;;;0.80;0.80;;;16.20;64.50;;;;;;4962181;28;20617;-68
2023/05/30 02:23:39;;;;;;;1.07;0.80;;;16.00;64.40;;;;;;4968025;28;20271;-69
2023/05/30 02:26:06;;;;;;;0.80;0.60;;;16.10;64.50;;;;;;4954030;28;20219;-69
2023/05/30 02:28:34;;;;;;;0.70;0.70;;;16.00;64.50;;;;;;4972056;28;20270;-69
2023/05/30 02:31:02;;;;;;;0.63;0.60;;;16.00;64.50;;;;;;4966592;28;20327;-69
2023/05/30 02:33:31;;;;;;;0.73;0.73;;;16.10;64.60;;;;;;4977452;28;20204;-69
2023/05/30 02:35:58;;;;;;;1.20;0.67;;;16.10;64.50;;;;;;4966086;28;20248;-69
2023/05/30 02:38:25;;;;;;;1.40;0.80;;;16.10;64.50;;;;;;4965009;28;20661;-70
2023/05/30 02:40:52;;;;;;;0.70;0.70;;;16.10;64.50;;;;;;4963792;28;20879;-68
2023/05/30 02:43:20;;;;;;;1.53;0.70;;;16.10;64.50;;;;;;4962741;28;20639;-69
2023/05/30 02:45:48;;;;;;;0.80;0.80;;;16.10;64.60;;;;;;4948521;28;20209;-69
2023/05/30 02:48:17;;;;;;;1.13;0.60;;;16.10;64.70;;;;;;4965777;28;20208;-68
2023/05/30 02:50:45;;;;;;;0.63;0.63;;;16.00;64.70;;;;;;4960442;28;20224;-69
2023/05/30 02:53:18;;;;;;;0.97;0.90;;;16.00;64.80;;;;;;4944490;28;20283;-69
2023/05/30 02:55:46;;;;;;;1.13;0.83;;;15.90;64.80;;;;;;4959406;28;20762;-69
2023/05/30 02:58:40;;;;;;;1.60;0.80;;;15.90;65.00;;;;;;4964508;28;20295;-69
2023/05/30 03:01:26;;;;;;;1.37;0.80;;;16.00;65.10;;;;;;4968846;28;20211;-69
2023/05/30 03:03:53;;;;;;;1.77;0.70;;;15.90;65.10;;;;;;4956831;28;20294;-68
2023/05/30 03:06:35;;;;;;;1.07;0.70;;;15.90;65.10;;;;;;4959651;28;20209;-68
2023/05/30 03:09:14;;;;;;;1.37;0.90;;;15.90;65.30;;;;;;4964209;28;20195;-69
2023/05/30 03:11:42;;;;;;;1.27;0.90;;;15.90;65.20;;;;;;4967417;28;20232;-68
2023/05/30 03:14:10;;;;;;;1.13;1.07;;;15.90;65.20;;;;;;4952251;28;20295;-68
2023/05/30 03:16:39;;;;;;;0.83;0.83;;;15.90;65.20;;;;;;4961319;28;20220;-68
2023/05/30 03:19:08;;;;;;;0.70;0.70;;;15.80;65.10;;;;;;4957411;28;20208;-68
2023/05/30 03:21:37;;;;;;;1.53;0.70;;;15.90;65.30;;;;;;4965640;28;20569;-68
2023/05/30 03:24:06;;;;;;;1.43;0.90;;;15.90;65.30;;;;;;4959603;28;20279;-69
2023/05/30 03:26:40;;;;;;;1.47;0.70;;;15.80;65.20;;;;;;4956978;28;20208;-68
2023/05/30 03:29:08;;;;;;;0.90;0.70;;;15.80;65.30;;;;;;4953748;28;20201;-70
2023/05/30 03:31:36;;;;;;;1.57;0.80;;;15.80;65.40;;;;;;4954482;28;20215;-70
2023/05/30 03:34:04;;;;;;;1.57;0.93;;;15.90;65.50;;;;;;4970410;28;20280;-70
2023/05/30 03:36:31;;;;;;;2.13;1.07;;;15.90;65.50;;;;;;4969369;28;20213;-70
2023/05/30 03:39:01;;;;;;;1.50;0.93;;;15.90;65.50;;;;;;4957263;28;20545;-69
2023/05/30 03:41:28;;;;;;;1.47;1.00;;;15.80;65.40;;;;;;4988052;28;20203;-68
2023/05/30 03:43:57;;;;;;;1.07;0.80;;;15.80;65.50;;;;;;4954182;28;20205;-69
2023/05/30 03:46:24;;;;;;;2.23;1.10;;;15.80;65.50;;;;;;4973852;28;20193;-69
2023/05/30 03:48:51;;;;;;;1.57;0.87;;;15.80;65.60;;;;;;4963433;28;20275;-69
2023/05/30 03:51:19;;;;;;;1.70;0.83;;;15.80;65.60;;;;;;4952545;28;20276;-69
2023/05/30 03:53:46;;;;;;;1.07;0.90;;;15.80;65.60;;;;;;4973567;28;20200;-69
2023/05/30 03:56:15;;;;;;;2.03;1.00;;;15.90;65.70;;;;;;4957357;28;20243;-69
2023/05/30 03:58:42;;;;;;;2.10;0.80;;;15.80;65.60;;;;;;4973993;28;20204;-69
2023/05/30 04:01:10;;;;;;;1.30;1.20;;;15.80;65.80;;;;;;4979292;28;20667;-70
2023/05/30 04:03:39;;;;;;;0.90;0.90;;;15.90;65.90;;;;;;4957348;28;20225;-69
2023/05/30 04:06:08;;;;;;;1.40;0.90;;;16.00;66.20;;;;;;4946980;28;20209;-69
2023/05/30 04:08:36;;;;;;;0.70;0.70;;;16.10;65.90;;;;;;4959036;28;20196;-69
2023/05/30 04:11:03;;;;;;;0.60;0.60;;;16.10;65.90;;;;;;4980509;28;20239;-68
2023/05/30 04:13:36;;;;;;;1.70;0.80;;;16.10;65.90;;;;;;4959461;28;20292;-69
2023/05/30 04:16:03;;;;;;;0.73;0.70;;;16.20;65.90;;;;;;4967987;28;20299;-68
2023/05/30 04:18:31;;;;;;;1.43;0.70;;;16.20;65.90;;;;;;4975653;28;20211;-68
2023/05/30 04:20:58;;;;;;;1.43;1.20;;;16.20;65.80;;;;;;4953981;28;20220;-68
2023/05/30 04:23:25;;;;;;;1.90;0.97;;;16.20;65.70;;;;;;4975448;28;20204;-68
2023/05/30 04:25:54;;;;;;;1.33;0.80;;;16.30;65.80;;;;;;4975850;28;20208;-69
2023/05/30 04:28:21;;;;;;;0.73;0.73;;;16.30;65.80;;;;;;4962829;28;20699;-69
2023/05/30 04:30:50;;;;;;;1.40;0.80;;;16.30;65.70;;;;;;4967674;28;20240;-69
2023/05/30 04:33:19;;;;;;;3.03;1.27;;;16.40;65.90;;;;;;4955184;28;20197;-69
2023/05/30 04:35:47;;;;;;;1.63;0.90;;;16.40;65.80;;;;;;4946137;28;20205;-69
2023/05/30 04:38:19;;;;;;;0.73;0.73;;;16.50;65.70;;;;;;4958533;28;20208;-69
2023/05/30 04:40:49;;;;;;;0.93;0.60;;;16.50;65.60;;;;;;4955537;28;20206;-69
2023/05/30 04:43:19;;;;;;;1.00;0.93;;;16.60;65.60;;;;;;4954009;28;20300;-69
2023/05/30 04:45:49;;;;;;;1.03;0.80;;;16.60;65.60;;;;;;4955740;28;20256;-70
2023/05/30 04:48:17;;;;;;;0.83;0.80;;;16.60;65.50;;;;;;4961316;28;20212;-70
2023/05/30 04:50:46;;;;;;;2.73;1.00;;;16.70;65.40;;;;;;4967336;28;20349;-70
2023/05/30 04:53:15;;;;;;;0.93;0.90;;;16.70;65.20;;;;;;4971049;28;20610;-69
2023/05/30 04:55:44;;;;;;;1.53;0.90;;;16.80;65.00;;;;;;4971911;28;20216;-69
2023/05/30 04:58:11;;;;;;;0.70;0.70;;;16.80;64.70;;;;;;4937964;28;20257;-67
2023/05/30 05:00:38;;;;;;;0.90;0.60;;;16.90;64.50;;;;;;4952352;28;20343;-67
2023/05/30 05:03:06;;;;;;;0.93;0.77;;;16.90;64.20;;;;;;4965522;28;20608;-68
2023/05/30 05:05:35;;;;;;;0.50;0.50;;;16.90;64.00;;;;;;4968856;28;20193;-67
2023/05/30 05:08:03;;;;;;;0.60;0.60;;;17.00;63.90;;;;;;4966475;28;20208;-67
2023/05/30 05:10:30;;;;;;;1.43;0.60;;;17.00;63.90;;;;;;4967411;28;20211;-67
2023/05/30 05:12:57;;;;;;;0.60;0.60;;;17.00;63.80;;;;;;4961663;28;20224;-67
2023/05/30 05:15:24;;;;;;;1.03;0.97;;;17.10;63.80;;;;;;4971413;28;20196;-67
2023/05/30 05:17:51;;;;;;;0.77;0.77;;;17.10;63.50;;;;;;4962626;28;20284;-67
2023/05/30 05:20:19;;;;;;;0.90;0.60;;;17.20;63.20;;;;;;4961397;28;20205;-67
2023/05/30 05:22:47;;;;;;;0.70;0.70;;;17.20;62.90;;;;;;4983822;28;20185;-68
2023/05/30 05:25:15;;;;;;;0.73;0.73;;;17.20;62.70;;;;;;4962511;28;20524;-68
2023/05/30 05:27:42;;;;;;;2.40;0.90;;;17.20;62.50;;;;;;4950574;28;20658;-67
2023/05/30 05:30:10;;;;;;;1.53;1.00;;;17.20;62.40;;;;;;4977765;28;20197;-67
2023/05/30 05:32:38;;;;;;;1.20;0.80;;;17.20;62.10;;;;;;4951000;28;20218;-68
2023/05/30 05:35:08;;;;;;;2.57;0.90;;;17.30;62.10;;;;;;4957252;28;20208;-68
2023/05/30 05:37:35;;;;;;;0.77;0.77;;;17.30;61.80;;;;;;4975242;28;20284;-69
2023/05/30 05:40:06;;;;;;;0.60;0.60;;;17.30;61.50;;;;;;4966365;28;20193;-70
2023/05/30 05:42:33;;;;;;;1.53;0.70;;;17.40;61.30;;;;;;4970489;28;20663;-69
2023/05/30 05:45:01;;;;;;;1.17;0.70;;;17.40;61.20;;;;;;4970525;28;20209;-69
2023/05/30 05:47:28;;;;;;;2.57;0.60;;;17.50;61.00;;;;;;4967487;28;21006;-68
2023/05/30 05:49:55;;;;;;;0.67;0.67;;;17.50;60.80;;;;;;4971848;28;20198;-69
2023/05/30 05:52:22;;;;;;;1.70;1.17;;;17.50;60.60;;;;;;4973856;28;20213;-69
2023/05/30 05:54:50;;;;;;;7.10;1.20;;;17.60;60.30;;;;;;4959469;28;20569;-70
2023/05/30 05:57:18;;;;;;;7.30;1.50;;;17.70;60.00;;;;;;4958610;28;20221;-69
2023/05/30 05:59:45;;;;;;;3.87;1.03;;;17.70;60.00;;;;;;4954540;28;20203;-69
2023/05/30 06:02:13;;;;;;;2.83;1.00;;;17.70;60.00;;;;;;4962592;28;20303;-70
2023/05/30 06:04:40;;;;;;;1.33;0.87;;;17.80;60.20;;;;;;4969612;28;20204;-68
2023/05/30 06:07:07;;;;;;;0.75;0.73;;;17.80;60.30;;;;;;4979005;28;20202;-68
2023/05/30 06:09:35;;;;;;;0.63;0.63;;;17.90;60.40;;;;;;4963347;28;20211;-68
2023/05/30 06:12:03;;;;;;;1.75;0.80;;;17.90;60.10;;;;;;4972181;28;20261;-67
2023/05/30 06:14:31;;;;;;;1.45;0.80;;;17.90;59.90;;;;;;4970264;28;20196;-67
2023/05/30 06:17:00;;;;;;;2.80;0.77;;;18.00;59.90;;;;;;4967343;28;20210;-68
2023/05/30 06:19:27;;;;;;;1.67;0.93;;;18.00;59.60;;;;;;4974063;28;20202;-67
2023/05/30 06:21:54;;;;;;;1.50;0.82;;;18.10;59.50;;;;;;4948326;28;20210;-68
2023/05/30 06:24:21;;;;;;;1.90;0.90;;;18.10;59.30;;;;;;4960420;28;20197;-68
2023/05/30 06:26:48;;;;;;;7.47;1.50;;;18.10;59.10;;;;;;4970771;28;20205;-69
2023/05/30 06:29:16;;;;;;;1.83;1.17;;;18.20;59.10;;;;;;4975507;28;20537;-68
2023/05/30 06:31:44;;;;;;;0.80;0.80;;;18.20;59.20;;;;;;4962928;28;20226;-68
2023/05/30 06:34:11;;;;;;;1.67;0.80;;;18.20;59.20;;;;;;4955523;28;20644;-69
2023/05/30 06:36:39;;;;;;;0.67;0.67;;;18.20;58.90;;;;;;4968135;28;20417;-70
2023/05/30 06:39:06;;;;;;;2.63;0.90;;;18.30;58.90;;;;;;4971179;28;20208;-69
2023/05/30 06:41:34;;;;;;;1.80;1.05;;;18.30;58.80;;;;;;4950614;28;20225;-68
2023/05/30 06:44:02;;;;;;;1.25;1.00;;;18.40;58.70;;;;;;4964404;28;20196;-69
2023/05/30 06:46:29;;;;;;;2.55;0.70;;;18.40;58.70;;;;;;4967716;28;20515;-69
2023/05/30 06:48:57;;;;;;;1.20;0.95;;;18.50;58.60;;;;;;4969052;28;20202;-68
2023/05/30 06:51:26;;;;;;;3.00;1.20;;;18.50;58.40;;;;;;4958615;28;20208;-68
2023/05/30 06:53:53;;;;;;;3.27;1.20;;;18.60;58.00;;;;;;4961343;28;20897;-68
2023/05/30 06:56:22;;;;;;;1.85;0.90;;;18.60;57.70;;;;;;4949742;28;20284;-68
2023/05/30 06:58:49;;;;;;;1.38;1.08;;;18.70;57.60;;;;;;4963587;28;20199;-68
2023/05/30 07:01:16;;;;;;;5.77;1.50;;;18.70;57.30;;;;;;4954014;28;20296;-69
2023/05/30 07:03:44;;;;;;;1.88;0.90;;;18.80;57.30;;;;;;4966757;28;20342;-69
2023/05/30 07:06:12;;;;;;;6.15;1.10;;;18.80;57.20;;;;;;4945425;28;20215;-68
2023/05/30 07:08:40;;;;;;;2.40;1.38;;;18.90;57.00;;;;;;4968575;28;20215;-68
2023/05/30 07:11:07;;;;;;;0.90;0.75;;;18.90;56.80;;;;;;4963765;28;20206;-69
2023/05/30 07:13:34;;;;;;;0.98;0.88;;;19.00;56.90;;;;;;4966682;28;20655;-68
2023/05/30 07:16:01;;;;;;;1.95;1.25;;;19.00;56.90;;;;;;4978367;28;20192;-69
2023/05/30 07:18:29;;;;;;;1.00;0.90;;;19.10;56.80;;;;;;4963378;28;20619;-68
2023/05/30 07:20:56;;;;;;;1.88;0.88;;;19.20;56.60;;;;;;4948840;28;20663;-69
2023/05/30 07:23:24;;;;;;;0.70;0.70;;;19.20;56.60;;;;;;4962830;28;20231;-69
2023/05/30 07:25:51;;;;;;;0.73;0.73;;;19.20;56.40;;;;;;4964015;28;20199;-68
2023/05/30 07:28:20;;;;;;;1.40;0.75;;;19.30;56.50;;;;;;4953599;28;20220;-68
2023/05/30 07:30:47;;;;;;;0.65;0.65;;;19.30;56.40;;;;;;4955469;28;20218;-68
2023/05/30 07:33:14;;;;;;;1.75;0.70;;;19.40;56.30;;;;;;4948871;28;20221;-69
2023/05/30 07:35:41;;;;;;;1.77;0.88;;;19.50;56.10;;;;;;4975065;28;20284;-69
2023/05/30 07:38:08;;;;;;;6.22;1.20;;;19.50;55.70;;;;;;4964848;28;20203;-69
2023/05/30 07:40:37;;;;;;;1.88;1.08;;;19.60;55.70;;;;;;4968195;28;20192;-68
2023/05/30 07:43:04;;;;;;;4.10;1.20;;;19.70;55.40;;;;;;4976160;28;20648;-69
2023/05/30 07:45:31;;;;;;;1.38;1.25;;;19.80;55.50;;;;;;4968483;28;20198;-69
2023/05/30 07:47:59;;;;;;;0.80;0.80;;;19.80;55.10;;;;;;4968638;28;20219;-69
2023/05/30 07:50:26;;;;;;;0.80;0.80;;;19.80;55.20;;;;;;4973669;28;20624;-67
2023/05/30 07:52:53;;;;;;;0.80;0.80;;;19.90;55.20;;;;;;4973777;28;20209;-70
2023/05/30 07:55:20;;;;;;;1.20;0.82;;;19.90;55.00;;;;;;4972656;28;20300;-69
2023/05/30 07:57:49;;;;;;;0.60;0.60;;;20.00;54.90;;;;;;4980198;28;20295;-68
2023/05/30 08:00:16;;;;;;;0.90;0.70;;;20.00;54.70;;;;;;4962251;28;20221;-69
2023/05/30 08:02:44;;;;;;;1.50;0.90;;;20.10;54.60;;;;;;4962186;28;20236;-69
2023/05/30 08:05:11;;;;;;;0.60;0.60;;;20.20;54.00;;;;;;4974678;28;20291;-68
2023/05/30 08:07:38;;;;;;;5.93;1.08;;;20.20;53.90;;;;;;4967628;28;20188;-68
2023/05/30 08:10:06;;;;;;;2.85;1.20;;;20.30;53.20;;;;;;4974388;28;20204;-69
2023/05/30 08:12:33;;;;;;;1.98;1.00;;;20.40;52.50;;;;;;4977313;28;20408;-69
2023/05/30 08:15:03;;;;;;;1.55;0.90;;;20.50;52.30;;;;;;4965700;28;20222;-69
2023/05/30 08:17:30;;;;;;;0.80;0.80;;;20.50;52.50;;;;;;4954491;28;20291;-69
2023/05/30 08:19:57;;;;;;;1.05;0.80;;;20.60;52.70;;;;;;4979860;28;20195;-69
2023/05/30 08:22:25;;;;;;;0.57;0.57;;;20.70;52.80;;;;;;4968201;28;20197;-69
2023/05/30 08:24:53;;;;;;;1.13;0.82;;;20.80;52.80;;;;;;4979640;28;20207;-68
2023/05/30 08:27:21;;;;;;;2.05;0.65;;;20.80;52.70;;;;;;4978614;28;20227;-69
2023/05/30 08:29:50;;;;;;;3.30;1.05;;;20.90;52.70;;;;;;4963777;28;20208;-68
2023/05/30 08:32:18;;;;;;;1.63;1.15;;;21.00;52.50;;;;;;4970865;28;20208;-68
2023/05/30 08:34:46;;;;;;;0.70;0.70;;;21.10;52.30;;;;;;4974639;28;20198;-69
2023/05/30 08:37:14;;;;;;;0.90;0.90;;;21.10;52.40;;;;;;4970375;28;20211;-69
2023/05/30 08:39:41;;;;;;;1.40;1.02;;;21.20;52.50;;;;;;4975387;28;20208;-69
2023/05/30 08:42:09;;;;;;;1.73;1.00;;;21.30;52.00;;;;;;4971464;28;20198;-69
2023/05/30 08:44:36;;;;;;;5.55;1.35;;;21.30;51.60;;;;;;4967093;28;20235;-69
2023/05/30 08:47:06;;;;;;;1.00;1.00;;;21.40;51.90;;;;;;4974370;28;20205;-69
2023/05/30 08:49:35;;;;;;;0.80;0.80;;;21.40;52.20;;;;;;4965134;28;20199;-69
2023/05/30 08:52:04;;;;;;;5.28;1.48;;;21.50;52.50;;;;;;4952158;28;20221;-70
2023/05/30 08:54:37;;;;;;;2.88;1.77;;;21.60;52.80;;;;;;4958740;28;20230;-69
2023/05/30 08:57:09;;;;;;;1.73;1.10;;;21.70;53.00;;;;;;4952545;28;20263;-68
2023/05/30 08:59:36;;;;;;;1.60;1.20;;;21.70;53.10;;;;;;4971485;28;20213;-70
2023/05/30 09:02:04;;;;;;;5.53;1.95;;;21.80;53.20;;;;;;4968622;28;20200;-69
2023/05/30 09:04:33;;;;;;;6.43;2.45;;;21.90;52.90;;;;;;4971430;28;20508;-69
2023/05/30 09:07:03;;;;;;;3.58;2.28;;;22.00;52.70;;;;;;4978255;28;20269;-68
2023/05/30 09:09:34;;;;;;;6.68;2.20;;;21.90;52.50;;;;;;4971592;28;20219;-69
2023/05/30 09:12:02;;;;;;;3.72;2.78;;;22.00;52.70;;;;;;4952922;28;20203;-68
2023/05/30 09:14:30;;;;;;;5.93;3.67;;;22.00;52.40;;;;;;4966471;28;20250;-68
2023/05/30 09:16:57;;;;;;;2.90;1.90;;;22.10;51.70;;;;;;4968571;28;20194;-69
2023/05/30 09:19:24;;;;;;;4.47;1.83;;;22.10;51.40;;;;;;4951780;28;20259;-69
2023/05/30 09:21:53;;;;;;;1.80;1.70;;;22.00;50.90;;;;;;4976315;28;20204;-68
2023/05/30 09:24:21;;;;;;;1.77;1.40;;;22.10;50.90;;;;;;4970468;28;20203;-69
2023/05/30 09:27:01;;;;;;;1.70;1.60;;;22.10;51.00;;;;;;4961510;28;20927;-69
2023/05/30 09:29:28;;;;;;;3.13;2.13;;;22.20;50.50;;;;;;4970656;28;20247;-67
2023/05/30 09:31:57;;;;;;;2.08;1.70;;;22.30;48.80;;;;;;4957851;28;20663;-69
2023/05/30 09:34:24;;;;;;;2.15;1.67;;;22.40;48.60;;;;;;4962408;28;20744;-68
2023/05/30 09:36:56;;;;;;;5.22;1.70;;;22.40;49.00;;;;;;4969571;28;20258;-69
2023/05/30 09:39:26;;;;;;;2.30;1.70;;;22.50;49.50;;;;;;4968195;28;20204;-68
2023/05/30 09:41:57;;;;;;;2.65;1.40;;;22.60;50.40;;;;;;4968986;28;20560;-69
2023/05/30 09:44:24;;;;;;;3.53;1.15;;;23.80;50.80;;;;;;4968305;28;20284;-67
2023/05/30 09:46:56;;;;;;;3.17;1.30;;;22.70;49.90;;;;;;4964980;28;20196;-68
2023/05/30 09:49:24;;;;;;;6.30;1.52;;;22.80;49.80;;;;;;4956065;28;20211;-69
2023/05/30 09:51:51;;;;;;;6.38;1.80;;;22.80;49.80;;;;;;4974330;28;20197;-69
2023/05/30 09:54:20;;;;;;;2.67;2.00;;;22.80;49.60;;;;;;4964086;28;20307;-68
2023/05/30 09:56:48;;;;;;;2.47;1.63;;;22.80;49.30;;;;;;4968838;28;20197;-68
2023/05/30 09:59:16;;;;;;;3.97;1.58;;;22.90;50.20;;;;;;4965893;28;20208;-68
2023/05/30 10:01:44;;;;;;;1.50;1.40;;;22.90;49.80;;;;;;4972014;28;20235;-68
2023/05/30 10:04:16;;;;;;;1.58;0.95;;;23.00;50.20;;;;;;4961712;28;20232;-68
2023/05/30 10:06:45;;;;;;;1.35;1.25;;;23.00;50.20;;;;;;4955346;28;20300;-69
2023/05/30 10:09:13;;;;;;;1.52;0.93;;;23.00;50.20;;;;;;4961081;28;20203;-68
2023/05/30 10:11:42;;;;;;;1.15;1.10;;;23.10;50.50;;;;;;4954792;28;20212;-68
2023/05/30 10:14:11;;;;;;;0.90;0.90;;;23.20;50.90;;;;;;4957722;28;20241;-68
2023/05/30 10:16:46;;;;;;;0.65;0.65;;;23.20;51.60;;;;;;4965924;28;20204;-68
2023/05/30 10:19:17;;;;;;;1.00;0.90;;;23.30;51.20;;;;;;4975075;28;20258;-68
2023/05/30 10:21:45;;;;;;;1.23;1.13;;;23.30;51.90;;;;;;4972801;28;20199;-69
2023/05/30 10:24:16;;;;;;;2.63;1.20;;;23.40;51.00;;;;;;4968423;28;20193;-69
2023/05/30 10:26:50;;;;;;;1.92;1.08;;;23.40;51.10;;;;;;4957546;28;20205;-69
2023/05/30 10:29:22;;;;;;;1.25;1.10;;;23.40;51.10;;;;;;4966082;28;20193;-67
2023/05/30 10:31:54;;;;;;;1.95;1.25;;;23.40;51.00;;;;;;4967164;28;20204;-68
2023/05/30 10:34:28;;;;;;;1.13;1.00;;;23.50;51.10;;;;;;4967936;28;20207;-70
2023/05/30 10:36:55;;;;;;;3.55;1.38;;;23.50;51.20;;;;;;4961622;28;20196;-69
2023/05/30 10:39:31;;;;;;;2.08;1.17;;;23.50;50.90;;;;;;4964741;28;20197;-69
2023/05/30 10:42:07;;;;;;;2.20;1.10;;;23.50;50.90;;;;;;4957105;28;20211;-69
2023/05/30 10:44:45;;;;;;;1.70;1.30;;;23.50;50.40;;;;;;4957724;28;20200;-68
2023/05/30 10:47:31;;;;;;;2.28;1.25;;;23.50;50.30;;;;;;4952707;28;20576;-68
2023/05/30 10:50:01;;;;;;;1.90;1.35;;;23.50;49.70;;;;;;4969740;28;20204;-68
2023/05/30 10:52:32;;;;;;;1.75;1.30;;;23.50;49.20;;;;;;4963472;28;20216;-68
2023/05/30 10:55:00;;;;;;;1.73;1.20;;;23.50;48.80;;;;;;4971080;28;20196;-68
2023/05/30 10:57:32;;;;;;;2.22;1.20;;;23.40;48.70;;;;;;4978161;28;20202;-66
2023/05/30 11:00:06;;;;;;;2.92;1.13;;;23.40;48.50;;;;;;4940146;28;20572;-68
2023/05/30 11:02:38;;;;;;;4.88;1.33;;;23.40;48.80;;;;;;4971789;28;20227;-68
2023/05/30 11:05:07;;;;;;;2.63;1.63;;;23.50;49.00;;;;;;4966389;28;20722;-69
2023/05/30 11:07:37;;;;;;;2.63;1.30;;;23.50;48.50;;;;;;4965951;28;20204;-69
2023/05/30 11:10:07;;;;;;;3.53;1.25;;;23.50;48.90;;;;;;4974724;28;20192;-68
2023/05/30 11:12:42;;;;;;;2.63;1.08;;;23.50;49.00;;;;;;4958812;28;20209;-69
2023/05/30 11:15:10;;;;;;;1.38;1.08;;;23.50;49.30;;;;;;4952084;28;20216;-68
2023/05/30 11:17:38;;;;;;;1.20;1.10;;;23.50;49.60;;;;;;4979315;28;20226;-68
2023/05/30 11:20:14;;;;;;;3.70;1.23;;;23.50;49.80;;;;;;4972178;28;20204;-69
2023/05/30 11:22:42;;;;;;;2.03;1.17;;;23.50;49.90;;;;;;4977250;28;20215;-69
2023/05/30 11:25:22;;;;;;;2.22;1.10;;;23.50;50.30;;;;;;4965860;28;20229;-68
2023/05/30 11:28:15;;;;;;;0.90;0.90;;;23.60;50.90;;;;;;4953588;28;20247;-69
2023/05/30 11:30:47;;;;;;;1.55;1.10;;;23.60;51.30;;;;;;4972075;28;20269;-68
2023/05/30 11:33:16;;;;;;;1.30;1.05;;;23.70;52.20;;;;;;4959806;28;20209;-68
2023/05/30 11:35:45;;;;;;;1.33;0.93;;;23.70;52.60;;;;;;4972665;28;20314;-68
2023/05/30 11:38:18;;;;;;;0.93;0.93;;;23.60;52.80;;;;;;4977155;28;20200;-68
2023/05/30 11:40:46;;;;;;;4.38;1.50;;;23.60;53.60;;;;;;4969775;28;20220;-69
2023/05/30 11:43:17;;;;;;;2.35;1.40;;;23.60;54.90;;;;;;4972611;28;20224;-68
2023/05/30 11:45:46;;;;;;;3.75;1.27;;;23.40;55.60;;;;;;4959427;28;20247;-68
2023/05/30 11:48:13;;;;;;;1.42;1.05;;;23.30;55.70;;;;;;4952467;28;20231;-68
2023/05/30 11:50:41;;;;;;;1.00;0.90;;;23.30;55.50;;;;;;4972801;28;20196;-68
2023/05/30 11:53:13;;;;;;;1.75;1.30;;;23.20;55.30;;;;;;4974034;28;20587;-68
2023/05/30 11:55:44;;;;;;;2.15;1.25;;;23.30;55.10;;;;;;4966342;28;20201;-68
2023/05/30 11:58:11;;;;;;;2.33;1.20;;;23.30;54.80;;;;;;4953902;28;20219;-69
2023/05/30 12:00:42;;;;;;;2.97;1.30;;;23.30;54.60;;;;;;4973337;28;20257;-69
2023/05/30 12:03:16;;;;;;;3.03;1.27;;;23.20;54.60;;;;;;4963406;28;20232;-68
2023/05/30 12:05:43;;;;;;;2.08;1.02;;;23.20;54.60;;;;;;4957304;28;20205;-68
2023/05/30 12:08:10;;;;;;;1.63;0.88;;;23.20;54.50;;;;;;4952768;28;20204;-68
2023/05/30 12:10:37;;;;;;;1.10;1.00;;;23.30;54.50;;;;;;4970804;28;20663;-69
2023/05/30 12:13:06;;;;;;;1.95;1.40;;;23.30;54.20;;;;;;4980466;28;20219;-68
2023/05/30 12:15:33;;;;;;;2.40;1.50;;;23.30;53.80;;;;;;4973189;28;20188;-68
2023/05/30 12:18:03;;;;;;;1.45;1.15;;;23.30;53.50;;;;;;4973492;28;20207;-68
2023/05/30 12:20:31;;;;;;;1.17;1.08;;;23.30;53.30;;;;;;4974411;28;20379;-68
2023/05/30 12:23:04;;;;;;;1.17;1.08;;;23.30;53.70;;;;;;4967725;28;20608;-68
2023/05/30 12:25:31;;;;;;;2.20;0.98;;;23.20;53.80;;;;;;4960064;28;20204;-69
2023/05/30 12:27:58;;;;;;;0.80;0.80;;;23.30;54.00;;;;;;4977660;28;20255;-69
2023/05/30 12:30:30;;;;;;;2.88;1.45;;;23.30;54.00;;;;;;4966337;28;20199;-69
2023/05/30 12:32:58;;;;;;;1.73;1.15;;;23.40;54.00;;;;;;4971498;28;20212;-68
2023/05/30 12:35:27;;;;;;;1.55;1.02;;;23.40;54.00;;;;;;4969607;28;20525;-69
2023/05/30 12:37:59;;;;;;;2.95;1.27;;;23.40;54.00;;;;;;4961216;28;20664;-69
2023/05/30 12:40:27;;;;;;;5.85;1.30;;;23.40;53.80;;;;;;4978143;28;20532;-69
2023/05/30 12:42:57;;;;;;;6.07;1.90;;;23.40;53.80;;;;;;4966760;28;20283;-68
2023/05/30 12:45:24;;;;;;;4.38;1.60;;;23.30;53.90;;;;;;4968748;28;20188;-68
2023/05/30 12:47:52;;;;;;;2.60;1.40;;;23.30;54.00;;;;;;4970641;28;20193;-69
2023/05/30 12:50:19;;;;;;;2.42;1.00;;;23.20;54.10;;;;;;4968061;28;20283;-69
2023/05/30 12:52:51;;;;;;;1.60;1.27;;;23.20;54.10;;;;;;4958949;28;20208;-69
2023/05/30 12:55:18;;;;;;;3.92;1.35;;;23.10;53.90;;;;;;4956612;28;20225;-69
2023/05/30 12:57:45;;;;;;;2.35;1.40;;;23.10;54.00;;;;;;4966734;28;20196;-69